Time;durP1;ratioP1;P1;durP2;ratioP2;P2;SDS_P1;SDS_P2;PMS_P1;PMS_P2;Temp;Humidity;BMP_temperature;BMP_pressure;BME280_temperature;BME280_humidity;BME280_pressure;Samples;Min_cycle;Max_cycle;Signal;HPM_P1;HPM_P2
2023/02/23 00:00:28;;;;;;;;;17.00;17.00;;;;;11.43;100.00;101087.09;5021082;28;45994;-75
2023/02/23 00:02:59;;;;;;;;;23.25;17.25;;;;;11.41;100.00;101095.91;5017957;28;45551;-75
2023/02/23 00:05:30;;;;;;;;;19.00;16.00;;;;;11.39;100.00;101089.69;5003535;28;47569;-75
2023/02/23 00:07:55;;;;;;;;;21.67;16.00;;;;;11.42;100.00;101087.09;5035747;28;45377;-75
2023/02/23 00:10:29;;;;;;;;;23.25;10.75;;;;;11.38;100.00;101093.22;5020258;28;55475;-75
2023/02/23 00:12:56;;;;;;;;;17.25;15.25;;;;;11.35;100.00;101085.25;5036051;28;45388;-75
2023/02/23 00:15:25;;;;;;;;;12.67;12.67;;;;;11.33;100.00;101077.28;5037750;28;45893;-75
2023/02/23 00:17:56;;;;;;;;;18.33;15.33;;;;;11.31;100.00;101079.03;5020142;28;45558;-76
2023/02/23 00:20:25;;;;;;;;;20.25;15.00;;;;;11.28;100.00;101073.69;5038110;28;45677;-76
2023/02/23 00:22:55;;;;;;;;;14.50;14.50;;;;;11.26;100.00;101072.81;5019575;28;45278;-73
2023/02/23 00:25:21;;;;;;;;;21.50;16.50;;;;;11.25;100.00;101078.97;5037516;28;46626;-76
2023/02/23 00:27:47;;;;;;;;;19.50;15.25;;;;;11.22;100.00;101077.16;5037606;28;45707;-75
2023/02/23 00:30:13;;;;;;;;;19.00;16.00;;;;;11.18;100.00;101074.44;5036720;28;46052;-73
2023/02/23 00:32:39;;;;;;;;;17.00;16.50;;;;;11.19;100.00;101081.53;5032646;28;45462;-74
2023/02/23 00:35:10;;;;;;;;;17.25;12.25;;;;;11.13;100.00;101070.88;5019832;28;45377;-75
2023/02/23 00:37:36;;;;;;;;;19.75;14.75;;;;;11.15;100.00;101080.59;5037526;28;45516;-77
2023/02/23 00:40:04;;;;;;;;;17.50;17.50;;;;;11.13;100.00;101082.34;5019595;28;45588;-75
2023/02/23 00:42:31;;;;;;;;;20.25;15.00;;;;;11.15;100.00;101083.25;5020450;28;45667;-77
2023/02/23 00:44:56;;;;;;;;;17.75;17.75;;;;;11.17;100.00;101093.81;5019091;28;45962;-75
2023/02/23 00:47:21;;;;;;;;;21.25;16.00;;;;;11.16;100.00;101085.00;5019400;28;55858;-77
2023/02/23 00:49:47;;;;;;;;;22.50;17.00;;;;;11.13;100.00;101081.44;5019463;28;45354;-75
2023/02/23 00:52:13;;;;;;;;;20.50;16.25;;;;;11.16;100.00;101076.19;5038180;28;45190;-76
2023/02/23 00:54:39;;;;;;;;;18.75;13.75;;;;;11.16;100.00;101082.38;5037435;28;45909;-75
2023/02/23 00:57:04;;;;;;;;;21.25;16.50;;;;;11.12;100.00;101084.94;5019361;28;46430;-74
2023/02/23 00:59:29;;;;;;;;;14.75;14.50;;;;;11.16;100.00;101081.50;5036850;28;57128;-75
2023/02/23 01:01:55;;;;;;;;;22.25;16.25;;;;;11.16;100.00;101086.78;5036952;28;47782;-76
2023/02/23 01:04:22;;;;;;;;;16.75;15.00;;;;;11.13;100.00;101094.66;5039190;28;46653;-74
2023/02/23 01:06:47;;;;;;;;;16.25;15.00;;;;;11.11;100.00;101093.75;5037587;28;45468;-74
2023/02/23 01:09:20;;;;;;;;;25.00;16.00;;;;;11.08;100.00;101088.41;5036923;28;53674;-74
2023/02/23 01:11:46;;;;;;;;;18.75;13.00;;;;;11.02;100.00;101089.22;5020565;28;45409;-75
2023/02/23 01:14:11;;;;;;;;;16.25;14.00;;;;;11.01;100.00;101093.63;5017363;28;45906;-76
2023/02/23 01:16:37;;;;;;;;;17.25;15.00;;;;;10.98;100.00;101090.97;5036150;28;61587;-74
2023/02/23 01:19:03;;;;;;;;;21.00;16.00;;;;;10.96;100.00;101083.88;5019401;28;45449;-75
2023/02/23 01:21:31;;;;;;;;;19.00;16.00;;;;;10.96;100.00;101097.06;5031732;28;45426;-75
2023/02/23 01:23:57;;;;;;;;;13.25;12.50;;;;;10.95;100.00;101087.38;5036956;28;45536;-76
2023/02/23 01:26:32;;;;;;;;;16.75;13.25;;;;;10.92;100.00;101082.94;5036635;28;45481;-75
2023/02/23 01:29:01;;;;;;;;;16.00;11.50;;;;;10.93;100.00;101087.38;5019631;28;45390;-75
2023/02/23 01:31:28;;;;;;;;;13.75;11.75;;;;;10.91;100.00;101083.78;4999537;28;45545;-76
2023/02/23 01:33:59;;;;;;;;;16.00;15.25;;;;;10.92;100.00;101087.31;5016638;28;45891;-76
2023/02/23 01:36:25;;;;;;;;;15.75;13.75;;;;;10.92;100.00;101088.25;5019011;28;45617;-76
2023/02/23 01:38:55;;;;;;;;;15.25;12.00;;;;;10.87;100.00;101082.00;5035230;28;45435;-75
2023/02/23 01:41:20;;;;;;;;;16.25;11.75;;;;;10.85;100.00;101083.72;5017061;28;45526;-77
2023/02/23 01:44:19;;;;;;;;;19.00;13.50;;;;;10.88;100.00;101091.69;5036499;28;45439;-75
2023/02/23 01:46:46;;;;;;;;;10.50;10.50;;;;;10.89;100.00;101085.53;4988947;28;46392;-75
2023/02/23 01:49:26;;;;;;;;;15.75;14.50;;;;;10.94;100.00;101088.25;5018793;28;45559;-74
2023/02/23 01:52:01;;;;;;;;;21.25;11.50;;;;;10.93;100.00;101095.28;5035822;28;45503;-76
2023/02/23 01:54:30;;;;;;;;;17.50;12.50;;;;;10.88;100.00;101091.69;5035967;28;45616;-75
2023/02/23 01:56:57;;;;;;;;;10.25;10.25;;;;;10.89;100.00;101096.09;5019187;28;45508;-75
2023/02/23 01:59:52;;;;;;;;;10.75;9.75;;;;;10.90;100.00;101084.66;5018415;28;46720;-75
2023/02/23 02:02:20;;;;;;;;;16.00;11.25;;;;;10.88;100.00;101091.69;4994011;28;45537;-75
2023/02/23 02:04:47;;;;;;;;;15.50;13.50;;;;;10.84;100.00;101092.50;5017347;28;45656;-76
2023/02/23 02:07:22;;;;;;;;;17.25;11.75;;;;;10.78;100.00;101078.34;5034756;28;45480;-75
2023/02/23 02:12:32;;;;;;;;;11.33;9.00;;;;;10.70;100.00;101091.41;5031389;28;45511;-76
2023/02/23 02:14:59;;;;;;;;;15.00;13.67;;;;;10.67;100.00;101091.41;5016485;28;45895;-74
2023/02/23 02:17:39;;;;;;;;;19.00;10.75;;;;;10.63;100.00;101090.44;5018151;28;45434;-74
2023/02/23 02:20:32;;;;;;;;;11.25;10.25;;;;;10.59;100.00;101085.09;5036233;28;45380;-75
2023/02/23 02:23:52;;;;;;;;;14.75;10.50;;;;;10.54;100.00;101081.50;5035649;28;45529;-74
2023/02/23 02:26:28;;;;;;;;;18.00;13.00;;;;;10.47;100.00;101075.25;4954546;28;46863;-75
2023/02/23 02:29:27;;;;;;;;;12.75;9.00;;;;;10.45;100.00;101085.78;5030672;28;45501;-74
2023/02/23 02:32:11;;;;;;;;;12.25;9.50;;;;;10.47;100.00;101091.09;5033595;28;45388;-74
2023/02/23 02:34:54;;;;;;;;;15.25;9.75;;;;;10.48;100.00;101085.81;5035002;28;45444;-75
2023/02/23 02:37:19;;;;;;;;;13.25;11.00;;;;;10.48;100.00;101087.56;5018142;28;47976;-74
2023/02/23 02:39:52;;;;;;;;;9.00;8.33;;;;;10.49;100.00;101094.63;5018025;28;45943;-76
2023/02/23 02:42:54;;;;;;;;;16.00;12.50;;;;;10.49;100.00;101084.97;5017652;28;45323;-75
2023/02/23 02:45:39;;;;;;;;;8.25;8.00;;;;;10.55;100.00;101088.56;5031619;28;45552;-74
2023/02/23 02:48:17;;;;;;;;;13.50;8.00;;;;;10.54;100.00;101085.03;5035969;28;45575;-77
2023/02/23 02:50:49;;;;;;;;;11.25;10.25;;;;;10.53;100.00;101077.09;5016598;28;45358;-74
2023/02/23 02:53:19;;;;;;;;;12.50;8.50;;;;;10.55;100.00;101080.66;5036347;28;45531;-75
2023/02/23 02:55:47;;;;;;;;;11.25;7.75;;;;;10.53;100.00;101079.72;5017795;28;45363;-74
2023/02/23 02:58:13;;;;;;;;;9.75;7.75;;;;;10.54;100.00;101081.50;5017565;28;45746;-75
2023/02/23 04:18:27;;;;;;;;;7.50;7.00;;;;;10.58;100.00;101086.84;5031645;28;46667;-75
2023/02/23 04:20:54;;;;;;;;;7.00;7.00;;;;;10.61;100.00;101093.94;4993674;28;46336;-74
2023/02/23 04:23:21;;;;;;;;;11.67;8.67;;;;;10.62;100.00;101098.34;5035305;28;45484;-75
2023/02/23 04:25:47;;;;;;;;;4.67;4.67;;;;;10.63;100.00;101097.47;5023751;28;45358;-75
2023/02/23 04:28:13;;;;;;;;;13.00;7.00;;;;;10.61;100.00;101092.19;5016461;28;46860;-75
2023/02/23 04:30:39;;;;;;;;;10.25;8.00;;;;;10.62;100.00;101103.63;5016810;28;45606;-74
2023/02/23 04:33:04;;;;;;;;;8.33;5.33;;;;;10.64;100.00;101104.53;5037231;28;45514;-75
2023/02/23 04:35:30;;;;;;;;;7.50;4.75;;;;;10.63;100.00;101102.75;5038794;28;45493;-76
2023/02/23 04:37:56;;;;;;;;;10.00;8.00;;;;;10.65;100.00;101106.31;5020044;28;46713;-75
2023/02/23 04:40:21;;;;;;;;;8.50;8.00;;;;;10.63;100.00;101098.38;5019895;28;45660;-75
2023/02/23 04:42:46;;;;;;;;;12.50;7.50;;;;;10.63;100.00;101102.75;5037861;28;45323;-74
2023/02/23 04:45:12;;;;;;;;;7.75;7.75;;;;;10.60;100.00;101100.06;5037186;28;50758;-76
2023/02/23 04:47:37;;;;;;;;;9.00;8.00;;;;;10.62;100.00;101103.63;5036222;28;64091;-77
2023/02/23 04:50:03;;;;;;;;;10.00;9.00;;;;;10.61;100.00;101097.47;5019967;28;53136;-75
2023/02/23 04:52:30;;;;;;;;;9.00;9.00;;;;;10.60;100.00;101102.69;5019618;28;45548;-75
2023/02/23 04:54:55;;;;;;;;;13.75;12.00;;;;;10.61;100.00;101112.44;5018644;28;45512;-75
2023/02/23 04:57:21;;;;;;;;;10.50;8.00;;;;;10.56;100.00;101109.72;5019521;28;45812;-74
2023/02/23 04:59:46;;;;;;;;;13.50;11.00;;;;;10.57;100.00;101119.41;5035975;28;56988;-73
2023/02/23 05:02:11;;;;;;;;;9.75;9.00;;;;;10.57;100.00;101121.16;5017949;28;57260;-75
2023/02/23 05:04:37;;;;;;;;;9.00;7.00;;;;;10.54;100.00;101118.47;5037338;28;45347;-77
2023/02/23 05:07:02;;;;;;;;;11.50;11.00;;;;;10.55;100.00;101125.53;5037141;28;50816;-75
2023/02/23 05:09:28;;;;;;;;;15.75;9.50;;;;;10.53;100.00;101127.25;5037225;28;51048;-75
2023/02/23 05:11:54;;;;;;;;;12.50;9.00;;;;;10.56;100.00;101137.88;5037582;28;45595;-75
2023/02/23 05:14:19;;;;;;;;;12.00;8.50;;;;;10.53;100.00;101133.41;5019436;28;45592;-76
2023/02/23 05:16:45;;;;;;;;;13.25;12.75;;;;;10.55;100.00;101139.63;5036644;28;45881;-75
2023/02/23 05:19:10;;;;;;;;;18.50;12.50;;;;;10.55;100.00;101136.09;5037182;28;46800;-74
2023/02/23 05:21:35;;;;;;;;;14.75;12.50;;;;;10.55;100.00;101141.38;5037883;28;45926;-74
2023/02/23 05:24:01;;;;;;;;;13.00;11.00;;;;;10.55;100.00;101138.75;5032998;28;45353;-74
2023/02/23 05:26:27;;;;;;;;;13.50;11.50;;;;;10.55;100.00;101141.38;5015920;28;46695;-74
2023/02/23 05:28:53;;;;;;;;;19.25;13.00;;;;;10.52;100.00;101136.94;5036605;28;45444;-75
2023/02/23 05:31:19;;;;;;;;;15.25;11.75;;;;;10.53;100.00;101143.09;5036651;28;45533;-75
2023/02/23 05:33:44;;;;;;;;;20.00;11.75;;;;;10.53;100.00;101143.09;5035539;28;55152;-75
2023/02/23 05:36:16;;;;;;;;;10.75;7.75;;;;;10.54;100.00;101148.38;5018346;28;47548;-76
2023/02/23 05:38:42;;;;;;;;;15.00;14.50;;;;;10.51;100.00;101148.34;5017899;28;45537;-76
2023/02/23 05:41:10;;;;;;;;;17.25;14.50;;;;;10.51;100.00;101148.34;5002151;28;45485;-75
2023/02/23 05:43:36;;;;;;;;;18.00;12.50;;;;;10.52;100.00;101149.25;5035205;28;45345;-75
2023/02/23 05:46:23;;;;;;;;;18.75;13.25;;;;;10.55;100.00;101151.94;5018850;28;46590;-74
2023/02/23 05:48:49;;;;;;;;;17.25;13.00;;;;;10.56;100.00;101145.78;5013488;28;45457;-75
2023/02/23 05:51:15;;;;;;;;;19.25;15.25;;;;;10.56;100.00;101145.78;5002362;28;45431;-74
2023/02/23 05:53:41;;;;;;;;;10.00;10.00;;;;;10.52;100.00;101149.25;5037275;28;45290;-75
2023/02/23 05:56:07;;;;;;;;;13.00;13.00;;;;;10.49;100.00;101150.97;5017548;28;45580;-75
2023/02/23 05:58:33;;;;;;;;;15.00;13.00;;;;;10.47;100.00;101143.88;5018427;28;45557;-74
2023/02/23 06:00:59;;;;;;;;;15.50;14.00;;;;;10.43;100.00;101140.28;5015594;28;45236;-74
2023/02/23 06:03:24;;;;;;;;;19.25;14.25;;;;;10.40;100.00;101142.91;5034908;28;48080;-75
2023/02/23 06:05:55;;;;;;;;;14.50;13.00;;;;;10.42;100.00;101141.16;5036110;28;58065;-74
2023/02/23 06:08:21;;;;;;;;;13.50;11.25;;;;;10.41;100.00;101149.94;5034610;28;45348;-74
2023/02/23 06:10:46;;;;;;;;;16.75;13.75;;;;;10.38;100.00;101143.72;5017501;28;45636;-73
2023/02/23 06:13:12;;;;;;;;;19.75;15.50;;;;;10.40;100.00;101148.19;5036158;28;51453;-76
2023/02/23 06:15:38;;;;;;;;;17.00;13.50;;;;;10.40;100.00;101149.94;5036847;28;46067;-77
2023/02/23 06:18:04;;;;;;;;;23.00;15.00;;;;;10.38;100.00;101149.00;5039354;28;45354;-77
2023/02/23 06:20:29;;;;;;;;;15.25;11.25;;;;;10.39;100.00;101148.16;5032161;28;45491;-76
2023/02/23 06:22:55;;;;;;;;;18.25;13.00;;;;;10.39;100.00;101146.41;5035953;28;45483;-75
2023/02/23 06:25:21;;;;;;;;;15.75;13.75;;;;;10.35;100.00;101139.28;5034106;28;46168;-74
2023/02/23 06:27:46;;;;;;;;;19.50;14.75;;;;;10.37;100.00;101145.47;5034372;28;52112;-75
2023/02/23 06:30:12;;;;;;;;;18.50;12.75;;;;;10.36;100.00;101138.44;5034916;28;53034;-74
2023/02/23 06:32:37;;;;;;;;;19.75;12.75;;;;;10.33;100.00;101141.00;5018531;28;45462;-74
2023/02/23 06:35:04;;;;;;;;;15.75;13.50;;;;;10.31;100.00;101144.50;5031718;28;60660;-75
2023/02/23 06:37:30;;;;;;;;;20.50;14.25;;;;;10.33;100.00;101153.31;5030171;28;45362;-74
2023/02/23 06:39:56;;;;;;;;;14.75;13.00;;;;;10.34;100.00;101155.13;5016072;28;45601;-76
2023/02/23 06:42:21;;;;;;;;;19.25;17.00;;;;;10.30;100.00;101146.25;5017226;28;45391;-74
2023/02/23 06:44:46;;;;;;;;;15.00;15.00;;;;;10.28;100.00;101145.34;5014610;28;48513;-74
2023/02/23 06:47:12;;;;;;;;;14.00;10.00;;;;;10.25;100.00;101142.63;5032112;28;55029;-76
2023/02/23 06:49:39;;;;;;;;;16.00;13.00;;;;;10.22;100.00;101155.72;5017181;28;57102;-76
2023/02/23 06:52:04;;;;;;;;;14.50;13.75;;;;;10.16;100.00;101158.25;5035611;28;45423;-74
2023/02/23 06:54:30;;;;;;;;;14.25;11.75;;;;;10.15;100.00;101160.00;5035707;28;46802;-74
2023/02/23 06:56:55;;;;;;;;;16.75;14.50;;;;;10.12;100.00;101162.63;5031675;28;58031;-77
2023/02/23 06:59:21;;;;;;;;;18.25;16.75;;;;;10.16;100.00;101172.34;5022842;28;45480;-76
2023/02/23 07:01:46;;;;;;;;;17.50;11.75;;;;;10.15;100.00;101161.78;4997433;28;45747;-74
2023/02/23 07:04:11;;;;;;;;;14.00;14.00;;;;;10.17;100.00;101176.78;5034765;28;54603;-75
2023/02/23 07:06:37;;;;;;;;;16.25;14.25;;;;;10.16;100.00;101174.09;5015715;28;59932;-74
2023/02/23 07:09:04;;;;;;;;;14.25;12.75;;;;;10.16;100.00;101177.63;5036168;28;51852;-74
2023/02/23 07:11:29;;;;;;;;;21.75;14.75;;;;;10.14;100.00;101163.53;5031241;28;45652;-74
2023/02/23 07:13:57;;;;;;;;;14.75;13.25;;;;;10.14;100.00;101168.81;5026278;28;46831;-75
2023/02/23 07:16:24;;;;;;;;;19.50;14.25;;;;;10.14;100.00;101173.19;4990585;28;45924;-74
2023/02/23 07:18:49;;;;;;;;;17.50;14.50;;;;;10.16;100.00;101172.34;5027859;28;45512;-75
2023/02/23 07:21:15;;;;;;;;;16.25;15.00;;;;;10.16;100.00;101182.00;5035261;28;45605;-74
2023/02/23 07:23:40;;;;;;;;;20.00;13.00;;;;;10.17;100.00;101184.69;5033275;28;45900;-77
2023/02/23 07:26:05;;;;;;;;;19.00;14.25;;;;;10.19;100.00;101187.34;5014721;28;45425;-77
2023/02/23 07:28:31;;;;;;;;;15.00;14.00;;;;;10.23;100.00;101203.31;5035189;28;45717;-74
2023/02/23 07:30:57;;;;;;;;;17.50;13.00;;;;;10.27;100.00;101196.31;5034848;28;50841;-75
2023/02/23 07:33:23;;;;;;;;;14.50;11.75;;;;;10.28;100.00;101195.50;5034336;28;45574;-74
2023/02/23 07:35:49;;;;;;;;;21.00;14.50;;;;;10.32;100.00;101210.50;4996793;28;45391;-74
2023/02/23 07:38:14;;;;;;;;;23.75;16.25;;;;;10.31;100.00;101207.84;5030369;28;45302;-74
2023/02/23 07:40:40;;;;;;;;;16.75;16.00;;;;;10.32;100.00;101213.13;5029442;28;48441;-75
2023/02/23 07:43:06;;;;;;;;;19.50;12.75;;;;;10.38;100.00;101218.50;5027255;28;62485;-76
2023/02/23 07:45:31;;;;;;;;;19.50;13.50;;;;;10.40;100.00;101218.56;5023951;28;45660;-74
2023/02/23 07:47:56;;;;;;;;;19.75;14.00;;;;;10.46;100.00;101218.66;5015457;28;45754;-75
2023/02/23 07:50:22;;;;;;;;;19.00;14.75;;;;;10.49;100.00;101216.06;5032068;28;45531;-74
2023/02/23 07:52:47;;;;;;;;;15.75;13.50;;;;;10.52;100.00;101217.88;5027678;28;57800;-74
2023/02/23 07:55:13;;;;;;;;;12.00;10.00;;;;;10.57;100.00;101227.66;5026533;28;51582;-74
2023/02/23 07:57:38;;;;;;;;;19.25;14.00;;;;;10.54;100.00;101210.88;5011310;28;45557;-75
2023/02/23 08:00:05;;;;;;;;;19.50;14.25;;;;;10.58;100.00;101221.50;5003418;28;45559;-75
2023/02/23 08:02:31;;;;;;;;;19.75;14.75;;;;;10.56;100.00;101225.00;5020383;28;46481;-75
2023/02/23 08:04:57;;;;;;;;;21.00;15.25;;;;;10.56;100.00;101217.97;5138548;22;45639;-74
2023/02/23 08:07:24;;;;;;;;;17.75;16.00;;;;;10.59;100.00;101219.75;5017681;28;45499;-77
2023/02/23 08:09:50;;;;;;;;;19.75;14.50;;;;;10.64;100.00;101226.91;5037457;28;45501;-76
2023/02/23 08:12:16;;;;;;;;;17.75;16.50;;;;;10.70;100.00;101226.09;5035259;28;46510;-76
2023/02/23 08:14:42;;;;;;;;;19.75;17.25;;;;;10.73;100.00;101218.25;5011715;28;47265;-77
2023/02/23 08:17:08;;;;;;;;;25.50;17.75;;;;;10.73;100.00;101221.78;5017721;28;45398;-75
2023/02/23 08:19:34;;;;;;;;;21.00;15.25;;;;;10.75;100.00;101216.50;5036583;28;45213;-74
2023/02/23 08:22:00;;;;;;;;;17.50;15.00;;;;;10.77;100.00;101222.72;5016494;28;46542;-75
2023/02/23 08:24:26;;;;;;;;;26.50;20.50;;;;;10.72;100.00;101206.78;5027051;28;45574;-73
2023/02/23 08:26:51;;;;;;;;;25.50;20.50;;;;;10.79;100.00;101212.19;5025117;28;45508;-73
2023/02/23 08:29:17;;;;;;;;;21.50;17.50;;;;;10.81;100.00;101211.31;5019577;28;45517;-73
2023/02/23 08:31:43;;;;;;;;;24.00;18.00;;;;;10.85;100.00;101217.56;5030742;28;46303;-73
2023/02/23 08:34:09;;;;;;;;;19.75;15.50;;;;;10.88;100.00;101220.25;5012319;28;45637;-74
2023/02/23 08:36:34;;;;;;;;;24.50;19.00;;;;;10.91;100.00;101215.00;5029140;28;45584;-73
2023/02/23 08:39:00;;;;;;;;;19.50;18.00;;;;;10.95;100.00;101215.06;5019421;28;45484;-74
2023/02/23 08:41:26;;;;;;;;;20.25;16.25;;;;;10.98;100.00;101224.81;5020580;28;46426;-75
2023/02/23 08:43:52;;;;;;;;;25.00;21.25;;;;;11.00;100.00;101231.00;4999630;28;45652;-76
2023/02/23 08:46:19;;;;;;;;;21.50;17.00;;;;;11.01;100.00;101231.03;5021801;28;45518;-74
2023/02/23 08:48:45;;;;;;;;;22.50;19.50;;;;;11.02;100.00;101231.91;4984782;28;45610;-74
2023/02/23 08:51:11;;;;;;;;;20.00;17.75;;;;;11.03;100.00;101233.72;5002879;28;45701;-74
2023/02/23 08:53:37;;;;;;;;;28.25;17.50;;;;;11.11;100.00;101237.34;5032121;28;45434;-74
2023/02/23 08:56:04;;;;;;;;;29.25;22.25;;;;;11.18;100.00;101238.31;5033990;28;45564;-74
2023/02/23 08:58:30;;;;;;;;;27.50;20.00;;;;;11.25;100.00;101240.22;5011049;28;45615;-74
2023/02/23 09:00:57;;;;;;;;;18.25;16.25;;;;;11.27;100.00;101236.69;5010479;28;47735;-76
2023/02/23 09:03:24;;;;;;;;;19.75;15.75;;;;;11.31;100.00;101242.06;5009603;28;45517;-76
2023/02/23 09:05:50;;;;;;;;;27.50;19.75;;;;;11.37;100.00;101242.13;5010357;28;45502;-74
2023/02/23 09:08:15;;;;;;;;;22.00;17.50;;;;;11.39;100.00;101241.28;5027851;28;46926;-74
2023/02/23 09:10:42;;;;;;;;;19.50;16.50;;;;;11.46;100.00;101243.16;5033094;28;63730;-75
2023/02/23 09:13:11;;;;;;;;;20.50;15.50;;;;;11.49;100.00;101234.38;4997593;28;45452;-74
2023/02/23 09:15:39;;;;;;;;;26.25;20.50;;;;;11.52;100.00;101245.88;5014780;28;45528;-75
2023/02/23 09:18:05;;;;;;;;;30.25;19.00;;;;;11.62;100.00;101248.66;5013344;28;45524;-74
2023/02/23 09:20:31;;;;;;;;;23.75;19.25;;;;;11.66;100.00;101253.09;5002658;28;47341;-74
2023/02/23 09:22:56;;;;;;;;;24.25;21.00;;;;;11.69;100.00;101258.44;5020200;28;46232;-75
2023/02/23 09:25:22;;;;;;;;;21.00;17.00;;;;;11.71;100.00;101252.28;5017862;28;49412;-73
2023/02/23 09:27:49;;;;;;;;;21.25;15.75;;;;;11.79;100.00;101257.69;5033259;28;45920;-73
2023/02/23 09:30:19;;;;;;;;;21.25;17.00;;;;;11.80;100.00;101251.53;5034775;28;46970;-75
2023/02/23 09:32:46;;;;;;;;;20.25;17.00;;;;;11.82;100.00;101263.03;5018830;28;45716;-74
2023/02/23 09:35:16;;;;;;;;;18.25;15.25;;;;;11.80;100.00;101257.72;5007553;28;46978;-75
2023/02/23 09:37:48;;;;;;;;;18.25;14.75;;;;;11.85;100.00;101265.75;5015439;28;45640;-75
2023/02/23 09:40:16;;;;;;;;;24.00;15.50;;;;;11.82;100.00;101270.97;5008859;28;48582;-74
2023/02/23 09:42:41;;;;;;;;;19.50;19.00;;;;;11.81;100.00;101274.47;5015697;28;45681;-75
2023/02/23 09:45:18;;;;;;;;;23.75;21.50;;;;;11.78;100.00;101269.16;5007602;28;46484;-76
2023/02/23 09:48:05;;;;;;;;;22.50;15.75;;;;;11.74;100.00;101275.25;5032718;28;45663;-76
2023/02/23 09:50:33;;;;;;;;;17.00;15.50;;;;;11.70;100.00;101276.97;5025115;28;47593;-76
2023/02/23 09:53:23;;;;;;;;;14.75;12.00;;;;;11.67;100.00;101284.00;5032326;28;45454;-75
2023/02/23 09:55:50;;;;;;;;;19.00;15.75;;;;;11.64;100.00;101279.53;5028988;28;47139;-75
2023/02/23 09:58:22;;;;;;;;;17.75;16.25;;;;;11.65;100.00;101277.78;4995177;28;45585;-74
2023/02/23 10:00:55;;;;;;;;;17.25;13.50;;;;;11.68;100.00;101277.84;5029745;28;45838;-74
2023/02/23 10:03:36;;;;;;;;;17.50;14.75;;;;;11.68;100.00;101275.19;5031627;28;45461;-74
2023/02/23 10:06:05;;;;;;;;;23.50;16.75;;;;;11.71;100.00;101268.16;5016153;28;45422;-74
2023/02/23 10:08:45;;;;;;;;;19.75;17.75;;;;;11.75;100.00;101267.34;5016707;28;46409;-74
2023/02/23 10:11:20;;;;;;;;;15.25;14.75;;;;;11.79;100.00;101266.53;5032439;28;46652;-74
2023/02/23 10:14:20;;;;;;;;;21.00;15.50;;;;;11.88;100.00;101267.53;5017668;28;45465;-75
2023/02/23 10:17:19;;;;;;;;;32.25;22.25;;;;;11.96;100.00;101272.06;5033146;28;45539;-74
2023/02/23 10:20:14;;;;;;;;;17.50;16.50;;;;;12.05;100.00;101274.81;4985502;28;45484;-74
2023/02/23 10:22:40;;;;;;;;;19.00;16.50;;;;;12.08;100.00;101268.66;4999433;28;47915;-74
2023/02/23 10:25:12;;;;;;;;;20.50;16.00;;;;;12.13;100.00;101274.00;5015396;28;45566;-74
2023/02/23 10:27:47;;;;;;;;;17.50;14.75;;;;;12.14;100.00;101267.84;5014837;28;45429;-75
2023/02/23 10:30:22;;;;;;;;;24.50;17.75;;;;;12.18;100.00;101270.53;5017802;28;45457;-74
2023/02/23 10:32:53;;;;;;;;;18.50;17.75;;;;;12.23;100.00;101255.59;5031420;28;46840;-74
2023/02/23 10:35:20;;;;;;;;;22.50;19.00;;;;;12.31;100.00;101258.34;5011801;28;45497;-73
2023/02/23 10:37:50;;;;;;;;;14.50;12.00;;;;;12.37;100.00;101254.88;5034762;28;45524;-78
2023/02/23 10:40:20;;;;;;;;;22.75;17.75;;;;;12.43;100.00;101257.59;5010933;28;45481;-74
2023/02/23 10:42:45;;;;;;;;;24.50;17.00;;;;;12.54;100.00;101261.22;5011225;28;45814;-73
2023/02/23 10:45:21;;;;;;;;;15.00;13.33;;;;;12.64;100.00;101259.56;5013648;28;61570;-74
2023/02/23 10:47:50;;;;;;;;;22.67;15.00;;;;;12.68;100.00;101261.38;5015604;28;45438;-73
2023/02/23 10:50:15;;;;;;;;;16.33;12.33;;;;;12.72;100.00;101252.56;5013404;28;45589;-76
2023/02/23 10:52:44;;;;;;;;;18.00;18.00;;;;;12.74;100.00;101259.66;5010090;28;46726;-77
2023/02/23 10:55:29;;;;;;;;;19.25;16.25;;;;;12.77;100.00;101256.13;5005057;28;45731;-74
2023/02/23 10:58:16;;;;;;;;;25.75;22.00;;;;;12.79;100.00;101265.88;5010022;28;45631;-76
2023/02/23 11:01:00;;;;;;;;;23.00;18.50;;;;;12.81;100.00;101264.13;5004607;28;45641;-74
2023/02/23 11:03:35;;;;;;;;;20.25;17.25;;;;;12.83;100.00;101269.44;5006115;28;46580;-75
2023/02/23 11:06:01;;;;;;;;;20.33;15.67;;;;;12.87;100.00;101262.41;5006956;28;45558;-75
2023/02/23 11:08:29;;;;;;;;;20.67;18.67;;;;;12.93;100.00;101263.34;5015120;28;45385;-72
2023/02/23 11:11:04;;;;;;;;;22.25;19.00;;;;;12.98;100.00;101268.69;5034113;28;45464;-73
2023/02/23 11:13:41;;;;;;;;;23.00;18.50;;;;;12.99;100.00;101266.03;5034014;28;45759;-75
2023/02/23 11:16:28;;;;;;;;;28.25;20.50;;;;;13.02;100.00;101263.41;5028441;28;45454;-72
2023/02/23 11:18:55;;;;;;;;;20.75;18.75;;;;;13.11;100.00;101258.19;5033153;28;45482;-72
2023/02/23 11:21:35;;;;;;;;;57.75;39.75;;;;;13.17;100.00;101261.78;5016251;28;45593;-74
2023/02/23 11:24:23;;;;;;;;;24.25;22.00;;;;;13.24;100.00;101255.66;5011448;28;47547;-73
2023/02/23 11:26:51;;;;;;;;;27.50;21.25;;;;;13.29;100.00;101267.19;5012636;28;45446;-73
2023/02/23 11:29:32;;;;;;;;;27.25;21.75;;;;;13.33;100.00;101248.66;5020567;28;45598;-69
2023/02/23 11:31:58;;;;;;;;;24.75;19.25;;;;;13.45;100.00;101255.78;5008787;28;45513;-72
2023/02/23 11:34:32;;;;;;;;;21.67;18.67;;;;;13.54;100.00;101253.19;5033943;28;46076;-73
2023/02/23 11:37:02;;;;;;;;;17.33;15.67;;;;;13.56;100.00;101248.78;5022414;28;45770;-74
2023/02/23 11:39:28;;;;;;;;;16.00;15.33;;;;;13.59;100.00;101251.47;5026094;28;45550;-76
2023/02/23 11:42:15;;;;;;;;;14.67;13.00;;;;;13.59;100.00;101238.19;5013273;28;45509;-75
2023/02/23 11:44:41;;;;;;;;;21.67;14.33;;;;;13.61;100.00;101249.69;5037090;28;46869;-75
2023/02/23 11:47:17;;;;;;;;;15.67;10.67;;;;;13.61;100.00;101238.19;5033975;28;46495;-73
2023/02/23 11:49:44;;;;;;;;;14.00;12.00;;;;;13.59;100.00;101240.84;5036029;28;45322;-73
2023/02/23 11:52:21;;;;;;;;;13.67;13.67;;;;;13.58;100.00;101239.09;5037458;28;45299;-74
2023/02/23 11:54:55;;;;;;;;;55.25;41.25;;;;;13.59;100.00;101247.94;5020791;28;46734;-75
2023/02/23 11:57:23;;;;;;;;;22.25;18.75;;;;;13.56;100.00;101240.81;5036740;28;45547;-73
2023/02/23 11:59:49;;;;;;;;;21.00;14.33;;;;;13.54;100.00;101244.34;5038517;28;45359;-73
2023/02/23 12:02:26;;;;;;;;;30.00;21.50;;;;;13.53;100.00;101239.91;5019597;28;45624;-73
2023/02/23 12:05:05;;;;;;;;;20.00;12.00;;;;;13.54;100.00;101236.41;5038334;28;46603;-73
2023/02/23 12:07:42;;;;;;;;;14.33;10.67;;;;;13.56;100.00;101229.31;5037745;28;45428;-75
2023/02/23 12:10:39;;;;;;;;;14.67;11.67;;;;;13.57;100.00;101231.09;5038681;28;45239;-74
2023/02/23 12:13:36;;;;;;;;;19.33;15.67;;;;;13.56;100.00;101224.91;5032656;28;45259;-73
2023/02/23 12:16:09;;;;;;;;;5.00;5.00;;;;;13.58;100.00;101224.91;5033611;28;46648;-73
2023/02/23 12:18:37;;;;;;;;;12.00;8.67;;;;;13.60;100.00;101226.69;5020470;28;45661;-74
2023/02/23 12:21:17;;;;;;;;;18.67;13.00;;;;;13.63;100.00;101231.13;5038549;28;45481;-75
2023/02/23 12:23:45;;;;;;;;;11.00;10.00;;;;;13.61;100.00;101225.81;5038557;28;45484;-73
2023/02/23 12:26:17;;;;;;;;;18.00;14.00;;;;;13.62;100.00;101224.03;5019700;28;46563;-73
2023/02/23 12:28:57;;;;;;;;;12.00;10.67;;;;;13.61;100.00;101224.94;5018577;28;45408;-75
2023/02/23 12:31:41;;;;;;;;;16.67;15.33;;;;;13.65;100.00;101221.41;5019983;28;45508;-73
2023/02/23 12:34:21;;;;;;;;;22.75;20.50;;;;;13.68;100.00;101220.53;5038287;28;45417;-73